sensor_id;sensor_type;location;lat;lon;timestamp;P1;durP1;ratioP1;P2;durP2;ratioP2
69197;SDS011;56311;50.298;8.514;2023-02-26T00:00:43;4.82;;;1.90;;
69197;SDS011;56311;50.298;8.514;2023-02-26T00:03:09;7.07;;;2.22;;
69197;SDS011;56311;50.298;8.514;2023-02-26T00:05:36;7.40;;;2.22;;
69197;SDS011;56311;50.298;8.514;2023-02-26T00:08:02;8.85;;;2.63;;
69197;SDS011;56311;50.298;8.514;2023-02-26T00:10:31;10.20;;;2.33;;
69197;SDS011;56311;50.298;8.514;2023-02-26T00:12:57;6.70;;;2.30;;
69197;SDS011;56311;50.298;8.514;2023-02-26T00:15:26;5.28;;;1.80;;
69197;SDS011;56311;50.298;8.514;2023-02-26T00:17:54;7.57;;;2.13;;
69197;SDS011;56311;50.298;8.514;2023-02-26T00:20:23;7.90;;;2.25;;
69197;SDS011;56311;50.298;8.514;2023-02-26T00:22:50;8.63;;;1.90;;
69197;SDS011;56311;50.298;8.514;2023-02-26T00:25:17;5.70;;;1.67;;
69197;SDS011;56311;50.298;8.514;2023-02-26T00:27:43;4.78;;;1.58;;
69197;SDS011;56311;50.298;8.514;2023-02-26T00:30:10;10.70;;;1.90;;
69197;SDS011;56311;50.298;8.514;2023-02-26T00:32:39;10.18;;;2.20;;
69197;SDS011;56311;50.298;8.514;2023-02-26T00:35:06;7.60;;;2.05;;
69197;SDS011;56311;50.298;8.514;2023-02-26T00:40:19;5.63;;;1.75;;
69197;SDS011;56311;50.298;8.514;2023-02-26T00:42:46;8.88;;;1.98;;
69197;SDS011;56311;50.298;8.514;2023-02-26T00:45:13;7.47;;;1.52;;
69197;SDS011;56311;50.298;8.514;2023-02-26T00:47:43;7.32;;;1.50;;
69197;SDS011;56311;50.298;8.514;2023-02-26T00:52:42;5.20;;;1.27;;
69197;SDS011;56311;50.298;8.514;2023-02-26T00:55:09;6.57;;;1.65;;
69197;SDS011;56311;50.298;8.514;2023-02-26T00:57:35;5.45;;;1.40;;
69197;SDS011;56311;50.298;8.514;2023-02-26T01:00:02;5.93;;;1.20;;
69197;SDS011;56311;50.298;8.514;2023-02-26T01:02:31;5.43;;;1.48;;
69197;SDS011;56311;50.298;8.514;2023-02-26T01:04:59;3.40;;;1.30;;
69197;SDS011;56311;50.298;8.514;2023-02-26T01:07:26;6.65;;;1.63;;
69197;SDS011;56311;50.298;8.514;2023-02-26T01:09:53;4.75;;;1.63;;
69197;SDS011;56311;50.298;8.514;2023-02-26T01:12:20;4.03;;;1.30;;
69197;SDS011;56311;50.298;8.514;2023-02-26T01:14:47;5.72;;;1.25;;
69197;SDS011;56311;50.298;8.514;2023-02-26T01:17:15;5.53;;;1.48;;
69197;SDS011;56311;50.298;8.514;2023-02-26T01:19:44;5.80;;;1.63;;
69197;SDS011;56311;50.298;8.514;2023-02-26T01:22:15;5.78;;;1.50;;
69197;SDS011;56311;50.298;8.514;2023-02-26T01:24:44;5.65;;;1.40;;
69197;SDS011;56311;50.298;8.514;2023-02-26T01:27:12;3.75;;;1.33;;
69197;SDS011;56311;50.298;8.514;2023-02-26T01:29:39;5.10;;;1.15;;
69197;SDS011;56311;50.298;8.514;2023-02-26T01:32:07;5.30;;;1.27;;
69197;SDS011;56311;50.298;8.514;2023-02-26T01:34:38;4.20;;;1.23;;
69197;SDS011;56311;50.298;8.514;2023-02-26T01:37:10;5.50;;;1.30;;
69197;SDS011;56311;50.298;8.514;2023-02-26T01:39:42;6.72;;;1.20;;
69197;SDS011;56311;50.298;8.514;2023-02-26T01:42:12;6.82;;;1.27;;
69197;SDS011;56311;50.298;8.514;2023-02-26T01:44:41;4.25;;;1.27;;
69197;SDS011;56311;50.298;8.514;2023-02-26T01:47:10;5.18;;;1.55;;
69197;SDS011;56311;50.298;8.514;2023-02-26T01:49:39;4.15;;;1.15;;
69197;SDS011;56311;50.298;8.514;2023-02-26T01:52:06;5.15;;;1.20;;
69197;SDS011;56311;50.298;8.514;2023-02-26T01:54:54;6.18;;;1.27;;
69197;SDS011;56311;50.298;8.514;2023-02-26T01:57:20;4.90;;;1.08;;
69197;SDS011;56311;50.298;8.514;2023-02-26T01:59:47;6.03;;;1.33;;
69197;SDS011;56311;50.298;8.514;2023-02-26T02:02:15;7.82;;;1.42;;
69197;SDS011;56311;50.298;8.514;2023-02-26T02:04:42;7.30;;;1.27;;
69197;SDS011;56311;50.298;8.514;2023-02-26T02:07:09;4.10;;;1.38;;
69197;SDS011;56311;50.298;8.514;2023-02-26T02:09:36;6.38;;;1.42;;
69197;SDS011;56311;50.298;8.514;2023-02-26T02:12:08;6.22;;;1.58;;
69197;SDS011;56311;50.298;8.514;2023-02-26T02:14:41;8.38;;;1.83;;
69197;SDS011;56311;50.298;8.514;2023-02-26T02:17:10;3.72;;;1.30;;
69197;SDS011;56311;50.298;8.514;2023-02-26T02:19:42;7.38;;;1.67;;
69197;SDS011;56311;50.298;8.514;2023-02-26T02:22:26;6.65;;;1.90;;
69197;SDS011;56311;50.298;8.514;2023-02-26T02:25:00;6.30;;;1.88;;
69197;SDS011;56311;50.298;8.514;2023-02-26T02:27:37;4.47;;;1.60;;
69197;SDS011;56311;50.298;8.514;2023-02-26T02:30:21;4.55;;;1.95;;
69197;SDS011;56311;50.298;8.514;2023-02-26T02:32:53;4.40;;;2.13;;
69197;SDS011;56311;50.298;8.514;2023-02-26T02:35:23;6.15;;;2.05;;
69197;SDS011;56311;50.298;8.514;2023-02-26T02:37:52;6.72;;;2.25;;
69197;SDS011;56311;50.298;8.514;2023-02-26T02:40:21;4.53;;;2.13;;
69197;SDS011;56311;50.298;8.514;2023-02-26T02:42:50;8.13;;;2.05;;
69197;SDS011;56311;50.298;8.514;2023-02-26T02:45:20;5.35;;;2.00;;
69197;SDS011;56311;50.298;8.514;2023-02-26T02:47:49;9.10;;;2.35;;
69197;SDS011;56311;50.298;8.514;2023-02-26T02:50:20;6.43;;;2.33;;
69197;SDS011;56311;50.298;8.514;2023-02-26T02:52:49;7.75;;;2.20;;
69197;SDS011;56311;50.298;8.514;2023-02-26T02:55:17;8.38;;;2.35;;
69197;SDS011;56311;50.298;8.514;2023-02-26T02:57:46;10.15;;;2.30;;
69197;SDS011;56311;50.298;8.514;2023-02-26T03:00:14;9.60;;;2.40;;
69197;SDS011;56311;50.298;8.514;2023-02-26T03:02:44;8.25;;;2.63;;
69197;SDS011;56311;50.298;8.514;2023-02-26T03:05:13;5.30;;;2.03;;
69197;SDS011;56311;50.298;8.514;2023-02-26T03:07:42;7.43;;;2.38;;
69197;SDS011;56311;50.298;8.514;2023-02-26T03:10:10;6.15;;;2.20;;
69197;SDS011;56311;50.298;8.514;2023-02-26T03:12:37;5.82;;;2.08;;
69197;SDS011;56311;50.298;8.514;2023-02-26T03:15:03;6.40;;;2.00;;
69197;SDS011;56311;50.298;8.514;2023-02-26T03:17:31;5.93;;;2.13;;
69197;SDS011;56311;50.298;8.514;2023-02-26T03:20:01;9.23;;;1.90;;
69197;SDS011;56311;50.298;8.514;2023-02-26T03:22:31;6.70;;;1.80;;
69197;SDS011;56311;50.298;8.514;2023-02-26T03:25:03;4.45;;;2.10;;
69197;SDS011;56311;50.298;8.514;2023-02-26T03:27:32;5.28;;;2.25;;
69197;SDS011;56311;50.298;8.514;2023-02-26T03:30:00;4.70;;;1.98;;
69197;SDS011;56311;50.298;8.514;2023-02-26T03:32:28;9.52;;;2.10;;
69197;SDS011;56311;50.298;8.514;2023-02-26T03:34:58;7.38;;;2.40;;
69197;SDS011;56311;50.298;8.514;2023-02-26T03:37:25;5.18;;;1.67;;
69197;SDS011;56311;50.298;8.514;2023-02-26T03:39:54;6.32;;;2.10;;
69197;SDS011;56311;50.298;8.514;2023-02-26T03:42:23;7.03;;;1.77;;
69197;SDS011;56311;50.298;8.514;2023-02-26T03:44:52;9.18;;;1.75;;
69197;SDS011;56311;50.298;8.514;2023-02-26T03:47:20;5.85;;;2.13;;
69197;SDS011;56311;50.298;8.514;2023-02-26T03:49:48;6.35;;;2.25;;
69197;SDS011;56311;50.298;8.514;2023-02-26T03:52:16;6.43;;;2.15;;
69197;SDS011;56311;50.298;8.514;2023-02-26T03:54:44;7.90;;;1.85;;
69197;SDS011;56311;50.298;8.514;2023-02-26T03:57:12;4.97;;;1.88;;
69197;SDS011;56311;50.298;8.514;2023-02-26T03:59:39;5.20;;;1.95;;
69197;SDS011;56311;50.298;8.514;2023-02-26T04:02:07;8.60;;;2.15;;
69197;SDS011;56311;50.298;8.514;2023-02-26T04:04:36;5.90;;;2.10;;
69197;SDS011;56311;50.298;8.514;2023-02-26T04:07:07;6.10;;;2.00;;
69197;SDS011;56311;50.298;8.514;2023-02-26T04:09:34;6.57;;;2.58;;
69197;SDS011;56311;50.298;8.514;2023-02-26T04:12:01;7.63;;;1.75;;
69197;SDS011;56311;50.298;8.514;2023-02-26T04:14:27;6.38;;;1.77;;
69197;SDS011;56311;50.298;8.514;2023-02-26T04:16:55;7.60;;;2.08;;
69197;SDS011;56311;50.298;8.514;2023-02-26T04:19:22;4.15;;;1.80;;
69197;SDS011;56311;50.298;8.514;2023-02-26T04:21:48;4.47;;;2.00;;
69197;SDS011;56311;50.298;8.514;2023-02-26T04:24:15;7.45;;;1.95;;
69197;SDS011;56311;50.298;8.514;2023-02-26T04:26:41;6.32;;;1.95;;
69197;SDS011;56311;50.298;8.514;2023-02-26T04:29:08;4.80;;;1.58;;
69197;SDS011;56311;50.298;8.514;2023-02-26T04:31:34;5.00;;;1.63;;
69197;SDS011;56311;50.298;8.514;2023-02-26T04:34:02;4.30;;;1.70;;
69197;SDS011;56311;50.298;8.514;2023-02-26T04:36:29;6.38;;;1.75;;
69197;SDS011;56311;50.298;8.514;2023-02-26T04:38:58;6.53;;;1.50;;
69197;SDS011;56311;50.298;8.514;2023-02-26T04:41:25;4.60;;;1.30;;
69197;SDS011;56311;50.298;8.514;2023-02-26T04:43:51;4.35;;;1.50;;
69197;SDS011;56311;50.298;8.514;2023-02-26T04:46:18;4.18;;;1.40;;
69197;SDS011;56311;50.298;8.514;2023-02-26T04:48:44;6.38;;;2.30;;
69197;SDS011;56311;50.298;8.514;2023-02-26T04:51:12;7.25;;;1.80;;
69197;SDS011;56311;50.298;8.514;2023-02-26T04:53:39;8.65;;;1.77;;
69197;SDS011;56311;50.298;8.514;2023-02-26T04:56:05;4.13;;;1.25;;
69197;SDS011;56311;50.298;8.514;2023-02-26T04:58:33;3.90;;;1.35;;
69197;SDS011;56311;50.298;8.514;2023-02-26T05:00:59;5.15;;;1.77;;
69197;SDS011;56311;50.298;8.514;2023-02-26T05:03:26;5.00;;;1.50;;
69197;SDS011;56311;50.298;8.514;2023-02-26T05:05:52;6.28;;;1.60;;
69197;SDS011;56311;50.298;8.514;2023-02-26T05:08:20;9.82;;;1.48;;
69197;SDS011;56311;50.298;8.514;2023-02-26T05:10:47;4.38;;;1.42;;
69197;SDS011;56311;50.298;8.514;2023-02-26T05:13:14;4.28;;;1.50;;
69197;SDS011;56311;50.298;8.514;2023-02-26T05:15:41;6.40;;;1.75;;
69197;SDS011;56311;50.298;8.514;2023-02-26T05:18:07;5.60;;;1.52;;
69197;SDS011;56311;50.298;8.514;2023-02-26T05:20:34;8.10;;;2.00;;
69197;SDS011;56311;50.298;8.514;2023-02-26T05:23:00;4.28;;;1.30;;
69197;SDS011;56311;50.298;8.514;2023-02-26T05:25:28;6.53;;;2.08;;
69197;SDS011;56311;50.298;8.514;2023-02-26T05:27:54;5.30;;;1.77;;
69197;SDS011;56311;50.298;8.514;2023-02-26T05:30:21;5.20;;;1.85;;
69197;SDS011;56311;50.298;8.514;2023-02-26T05:32:48;6.10;;;1.38;;
69197;SDS011;56311;50.298;8.514;2023-02-26T05:35:14;4.20;;;1.60;;
69197;SDS011;56311;50.298;8.514;2023-02-26T05:37:41;6.30;;;1.45;;
69197;SDS011;56311;50.298;8.514;2023-02-26T05:40:08;5.07;;;1.40;;
69197;SDS011;56311;50.298;8.514;2023-02-26T05:42:37;5.15;;;1.60;;
69197;SDS011;56311;50.298;8.514;2023-02-26T05:45:05;5.47;;;1.40;;
69197;SDS011;56311;50.298;8.514;2023-02-26T05:47:31;4.78;;;1.45;;
69197;SDS011;56311;50.298;8.514;2023-02-26T05:49:58;3.90;;;1.30;;
69197;SDS011;56311;50.298;8.514;2023-02-26T05:52:25;4.80;;;1.60;;
69197;SDS011;56311;50.298;8.514;2023-02-26T05:54:51;4.03;;;1.40;;
69197;SDS011;56311;50.298;8.514;2023-02-26T05:57:18;4.40;;;1.38;;
69197;SDS011;56311;50.298;8.514;2023-02-26T05:59:46;4.88;;;1.35;;
69197;SDS011;56311;50.298;8.514;2023-02-26T06:02:12;5.35;;;1.63;;
69197;SDS011;56311;50.298;8.514;2023-02-26T06:04:39;4.00;;;1.50;;
69197;SDS011;56311;50.298;8.514;2023-02-26T06:07:06;6.22;;;1.40;;
69197;SDS011;56311;50.298;8.514;2023-02-26T06:09:32;4.80;;;1.40;;
69197;SDS011;56311;50.298;8.514;2023-02-26T06:11:59;8.73;;;1.60;;
69197;SDS011;56311;50.298;8.514;2023-02-26T06:14:25;5.13;;;1.60;;
69197;SDS011;56311;50.298;8.514;2023-02-26T06:16:53;5.72;;;1.50;;
69197;SDS011;56311;50.298;8.514;2023-02-26T06:19:20;5.00;;;1.42;;
69197;SDS011;56311;50.298;8.514;2023-02-26T06:21:46;6.05;;;1.48;;
69197;SDS011;56311;50.298;8.514;2023-02-26T06:24:13;3.90;;;1.30;;
69197;SDS011;56311;50.298;8.514;2023-02-26T06:26:40;6.22;;;1.48;;
69197;SDS011;56311;50.298;8.514;2023-02-26T06:29:06;5.43;;;1.35;;
69197;SDS011;56311;50.298;8.514;2023-02-26T06:31:33;4.68;;;1.70;;
69197;SDS011;56311;50.298;8.514;2023-02-26T06:34:01;6.28;;;1.40;;
69197;SDS011;56311;50.298;8.514;2023-02-26T06:36:28;4.72;;;1.30;;
69197;SDS011;56311;50.298;8.514;2023-02-26T06:38:54;4.30;;;1.50;;
69197;SDS011;56311;50.298;8.514;2023-02-26T06:41:21;4.35;;;1.67;;
69197;SDS011;56311;50.298;8.514;2023-02-26T06:43:47;4.18;;;1.50;;
69197;SDS011;56311;50.298;8.514;2023-02-26T06:46:14;3.80;;;1.50;;
69197;SDS011;56311;50.298;8.514;2023-02-26T06:48:40;8.45;;;1.67;;
69197;SDS011;56311;50.298;8.514;2023-02-26T06:51:08;6.45;;;1.85;;
69197;SDS011;56311;50.298;8.514;2023-02-26T06:53:35;5.32;;;1.30;;
69197;SDS011;56311;50.298;8.514;2023-02-26T06:56:01;5.93;;;1.50;;
69197;SDS011;56311;50.298;8.514;2023-02-26T06:58:28;6.60;;;1.65;;
69197;SDS011;56311;50.298;8.514;2023-02-26T07:00:55;7.82;;;2.08;;
69197;SDS011;56311;50.298;8.514;2023-02-26T07:03:21;4.68;;;1.92;;
69197;SDS011;56311;50.298;8.514;2023-02-26T07:05:48;6.20;;;1.80;;
69197;SDS011;56311;50.298;8.514;2023-02-26T07:08:16;4.85;;;1.45;;
69197;SDS011;56311;50.298;8.514;2023-02-26T07:10:42;4.82;;;1.50;;
69197;SDS011;56311;50.298;8.514;2023-02-26T07:13:11;4.93;;;1.55;;
69197;SDS011;56311;50.298;8.514;2023-02-26T07:15:38;6.80;;;1.70;;
69197;SDS011;56311;50.298;8.514;2023-02-26T07:18:05;5.05;;;2.10;;
69197;SDS011;56311;50.298;8.514;2023-02-26T07:20:32;4.38;;;1.75;;
69197;SDS011;56311;50.298;8.514;2023-02-26T07:22:59;6.80;;;1.63;;
69197;SDS011;56311;50.298;8.514;2023-02-26T07:25:27;4.07;;;1.67;;
69197;SDS011;56311;50.298;8.514;2023-02-26T07:27:54;4.68;;;1.55;;
69197;SDS011;56311;50.298;8.514;2023-02-26T07:30:21;5.10;;;1.85;;
69197;SDS011;56311;50.298;8.514;2023-02-26T07:32:48;4.75;;;1.65;;
69197;SDS011;56311;50.298;8.514;2023-02-26T07:35:14;4.95;;;1.80;;
69197;SDS011;56311;50.298;8.514;2023-02-26T07:37:41;6.53;;;2.13;;
69197;SDS011;56311;50.298;8.514;2023-02-26T07:40:08;5.90;;;1.83;;
69197;SDS011;56311;50.298;8.514;2023-02-26T07:42:36;4.93;;;1.60;;
69197;SDS011;56311;50.298;8.514;2023-02-26T07:45:03;6.70;;;2.17;;
69197;SDS011;56311;50.298;8.514;2023-02-26T07:47:30;6.18;;;1.88;;
69197;SDS011;56311;50.298;8.514;2023-02-26T07:49:56;4.20;;;1.67;;
69197;SDS011;56311;50.298;8.514;2023-02-26T07:52:23;8.30;;;1.90;;
69197;SDS011;56311;50.298;8.514;2023-02-26T07:54:49;5.45;;;1.77;;
69197;SDS011;56311;50.298;8.514;2023-02-26T07:57:16;4.13;;;1.50;;
69197;SDS011;56311;50.298;8.514;2023-02-26T07:59:44;7.32;;;1.88;;
69197;SDS011;56311;50.298;8.514;2023-02-26T08:02:11;3.95;;;1.58;;
69197;SDS011;56311;50.298;8.514;2023-02-26T08:04:37;4.22;;;1.65;;
69197;SDS011;56311;50.298;8.514;2023-02-26T08:07:04;6.30;;;1.92;;
69197;SDS011;56311;50.298;8.514;2023-02-26T08:09:31;3.13;;;1.48;;
69197;SDS011;56311;50.298;8.514;2023-02-26T08:11:57;5.18;;;1.73;;
69197;SDS011;56311;50.298;8.514;2023-02-26T08:14:24;4.88;;;1.25;;
69197;SDS011;56311;50.298;8.514;2023-02-26T08:16:52;5.82;;;1.55;;
69197;SDS011;56311;50.298;8.514;2023-02-26T08:19:18;5.00;;;1.45;;
69197;SDS011;56311;50.298;8.514;2023-02-26T08:21:45;4.22;;;1.40;;
69197;SDS011;56311;50.298;8.514;2023-02-26T08:24:12;5.20;;;1.38;;
69197;SDS011;56311;50.298;8.514;2023-02-26T08:26:38;4.57;;;1.38;;
69197;SDS011;56311;50.298;8.514;2023-02-26T08:29:05;3.45;;;1.30;;
69197;SDS011;56311;50.298;8.514;2023-02-26T08:31:31;7.10;;;1.65;;
69197;SDS011;56311;50.298;8.514;2023-02-26T08:34:01;7.40;;;1.42;;
69197;SDS011;56311;50.298;8.514;2023-02-26T08:36:27;5.78;;;1.60;;
69197;SDS011;56311;50.298;8.514;2023-02-26T08:38:54;5.40;;;1.35;;
69197;SDS011;56311;50.298;8.514;2023-02-26T08:41:20;5.50;;;1.45;;
69197;SDS011;56311;50.298;8.514;2023-02-26T08:43:48;5.03;;;1.58;;
69197;SDS011;56311;50.298;8.514;2023-02-26T08:46:15;6.60;;;1.50;;
69197;SDS011;56311;50.298;8.514;2023-02-26T08:48:41;3.88;;;1.30;;
69197;SDS011;56311;50.298;8.514;2023-02-26T08:51:09;4.45;;;1.27;;
69197;SDS011;56311;50.298;8.514;2023-02-26T08:53:36;3.92;;;1.55;;
69197;SDS011;56311;50.298;8.514;2023-02-26T08:56:03;3.90;;;1.48;;
69197;SDS011;56311;50.298;8.514;2023-02-26T08:58:30;3.15;;;1.20;;
69197;SDS011;56311;50.298;8.514;2023-02-26T09:00:57;3.88;;;1.10;;
69197;SDS011;56311;50.298;8.514;2023-02-26T09:03:24;3.72;;;1.10;;
69197;SDS011;56311;50.298;8.514;2023-02-26T09:05:50;5.93;;;1.48;;
69197;SDS011;56311;50.298;8.514;2023-02-26T09:08:18;4.38;;;1.30;;
69197;SDS011;56311;50.298;8.514;2023-02-26T09:10:46;2.80;;;1.13;;
69197;SDS011;56311;50.298;8.514;2023-02-26T09:13:12;3.55;;;1.40;;
69197;SDS011;56311;50.298;8.514;2023-02-26T09:15:39;4.07;;;1.42;;
69197;SDS011;56311;50.298;8.514;2023-02-26T09:18:05;4.47;;;1.15;;
69197;SDS011;56311;50.298;8.514;2023-02-26T09:20:32;3.80;;;1.70;;
69197;SDS011;56311;50.298;8.514;2023-02-26T09:22:59;3.90;;;1.33;;
69197;SDS011;56311;50.298;8.514;2023-02-26T09:25:26;4.45;;;1.60;;
69197;SDS011;56311;50.298;8.514;2023-02-26T09:27:53;5.10;;;1.38;;
69197;SDS011;56311;50.298;8.514;2023-02-26T09:30:21;6.78;;;1.60;;
69197;SDS011;56311;50.298;8.514;2023-02-26T09:32:47;4.43;;;1.50;;
69197;SDS011;56311;50.298;8.514;2023-02-26T09:35:14;7.22;;;1.80;;
69197;SDS011;56311;50.298;8.514;2023-02-26T09:37:40;5.38;;;1.63;;
69197;SDS011;56311;50.298;8.514;2023-02-26T09:40:09;2.28;;;0.88;;
69197;SDS011;56311;50.298;8.514;2023-02-26T09:42:46;3.38;;;0.98;;
69197;SDS011;56311;50.298;8.514;2023-02-26T09:45:19;3.85;;;0.73;;
69197;SDS011;56311;50.298;8.514;2023-02-26T09:47:48;2.78;;;0.80;;
69197;SDS011;56311;50.298;8.514;2023-02-26T09:50:17;4.30;;;0.90;;
69197;SDS011;56311;50.298;8.514;2023-02-26T09:52:46;2.00;;;0.70;;
69197;SDS011;56311;50.298;8.514;2023-02-26T09:55:16;3.53;;;0.70;;
69197;SDS011;56311;50.298;8.514;2023-02-26T09:57:47;3.80;;;1.02;;
69197;SDS011;56311;50.298;8.514;2023-02-26T10:00:20;2.60;;;0.80;;
69197;SDS011;56311;50.298;8.514;2023-02-26T10:02:50;2.10;;;0.60;;
69197;SDS011;56311;50.298;8.514;2023-02-26T10:05:22;1.52;;;0.50;;
69197;SDS011;56311;50.298;8.514;2023-02-26T10:07:53;2.33;;;0.80;;
69197;SDS011;56311;50.298;8.514;2023-02-26T10:10:23;2.42;;;0.80;;
69197;SDS011;56311;50.298;8.514;2023-02-26T10:12:54;3.63;;;0.80;;
69197;SDS011;56311;50.298;8.514;2023-02-26T10:15:21;1.98;;;0.50;;
69197;SDS011;56311;50.298;8.514;2023-02-26T10:20:38;3.83;;;0.80;;
69197;SDS011;56311;50.298;8.514;2023-02-26T10:23:11;2.90;;;0.82;;
69197;SDS011;56311;50.298;8.514;2023-02-26T10:25:42;3.03;;;0.90;;
69197;SDS011;56311;50.298;8.514;2023-02-26T10:28:19;4.10;;;1.40;;
69197;SDS011;56311;50.298;8.514;2023-02-26T10:30:50;2.20;;;0.63;;
69197;SDS011;56311;50.298;8.514;2023-02-26T10:33:19;2.83;;;1.00;;
69197;SDS011;56311;50.298;8.514;2023-02-26T10:35:49;3.80;;;0.70;;
69197;SDS011;56311;50.298;8.514;2023-02-26T10:38:19;2.63;;;0.90;;
69197;SDS011;56311;50.298;8.514;2023-02-26T10:40:48;3.72;;;0.90;;
69197;SDS011;56311;50.298;8.514;2023-02-26T10:43:18;4.22;;;1.00;;
69197;SDS011;56311;50.298;8.514;2023-02-26T10:45:50;2.58;;;1.00;;
69197;SDS011;56311;50.298;8.514;2023-02-26T10:48:29;3.97;;;1.15;;
69197;SDS011;56311;50.298;8.514;2023-02-26T10:50:57;2.35;;;0.95;;
69197;SDS011;56311;50.298;8.514;2023-02-26T10:53:25;3.78;;;0.90;;
69197;SDS011;56311;50.298;8.514;2023-02-26T10:55:56;2.70;;;1.10;;
69197;SDS011;56311;50.298;8.514;2023-02-26T10:58:26;3.78;;;0.95;;
69197;SDS011;56311;50.298;8.514;2023-02-26T11:00:54;2.58;;;0.90;;
69197;SDS011;56311;50.298;8.514;2023-02-26T11:03:22;2.40;;;0.70;;
69197;SDS011;56311;50.298;8.514;2023-02-26T11:05:50;3.22;;;1.00;;
69197;SDS011;56311;50.298;8.514;2023-02-26T11:08:17;3.15;;;0.93;;
69197;SDS011;56311;50.298;8.514;2023-02-26T11:10:46;2.40;;;0.73;;
69197;SDS011;56311;50.298;8.514;2023-02-26T11:13:13;2.85;;;0.80;;
69197;SDS011;56311;50.298;8.514;2023-02-26T11:15:41;3.30;;;1.00;;
69197;SDS011;56311;50.298;8.514;2023-02-26T11:18:11;2.03;;;0.80;;
69197;SDS011;56311;50.298;8.514;2023-02-26T11:20:41;3.20;;;0.90;;
69197;SDS011;56311;50.298;8.514;2023-02-26T11:23:13;5.50;;;0.80;;
69197;SDS011;56311;50.298;8.514;2023-02-26T11:25:41;4.13;;;0.88;;
69197;SDS011;56311;50.298;8.514;2023-02-26T11:28:18;2.10;;;0.70;;
69197;SDS011;56311;50.298;8.514;2023-02-26T11:30:47;2.90;;;0.80;;
69197;SDS011;56311;50.298;8.514;2023-02-26T11:33:15;2.28;;;0.75;;
69197;SDS011;56311;50.298;8.514;2023-02-26T11:35:42;3.38;;;0.90;;
69197;SDS011;56311;50.298;8.514;2023-02-26T11:38:13;1.77;;;0.60;;
69197;SDS011;56311;50.298;8.514;2023-02-26T11:40:42;1.83;;;0.70;;
69197;SDS011;56311;50.298;8.514;2023-02-26T11:43:13;2.90;;;0.88;;
69197;SDS011;56311;50.298;8.514;2023-02-26T11:45:40;1.83;;;0.70;;
69197;SDS011;56311;50.298;8.514;2023-02-26T11:48:10;2.92;;;0.90;;
69197;SDS011;56311;50.298;8.514;2023-02-26T11:50:43;2.50;;;0.80;;
69197;SDS011;56311;50.298;8.514;2023-02-26T11:53:15;3.78;;;0.80;;
69197;SDS011;56311;50.298;8.514;2023-02-26T11:55:43;2.25;;;0.75;;
69197;SDS011;56311;50.298;8.514;2023-02-26T11:58:14;2.33;;;0.90;;
69197;SDS011;56311;50.298;8.514;2023-02-26T12:00:42;2.97;;;1.33;;
69197;SDS011;56311;50.298;8.514;2023-02-26T12:03:15;2.63;;;0.88;;
69197;SDS011;56311;50.298;8.514;2023-02-26T12:05:42;4.47;;;1.20;;
69197;SDS011;56311;50.298;8.514;2023-02-26T12:08:12;2.88;;;0.85;;
69197;SDS011;56311;50.298;8.514;2023-02-26T12:10:39;4.40;;;1.00;;
69197;SDS011;56311;50.298;8.514;2023-02-26T12:13:10;2.17;;;0.80;;
69197;SDS011;56311;50.298;8.514;2023-02-26T12:15:39;2.38;;;0.82;;
69197;SDS011;56311;50.298;8.514;2023-02-26T12:20:59;2.05;;;0.70;;
69197;SDS011;56311;50.298;8.514;2023-02-26T12:26:26;2.45;;;0.80;;
69197;SDS011;56311;50.298;8.514;2023-02-26T12:29:13;2.25;;;0.80;;
69197;SDS011;56311;50.298;8.514;2023-02-26T12:31:57;2.30;;;0.63;;
69197;SDS011;56311;50.298;8.514;2023-02-26T12:34:34;3.03;;;0.70;;
69197;SDS011;56311;50.298;8.514;2023-02-26T12:37:18;2.53;;;0.60;;
69197;SDS011;56311;50.298;8.514;2023-02-26T12:39:49;3.13;;;0.70;;
69197;SDS011;56311;50.298;8.514;2023-02-26T12:42:23;2.38;;;0.80;;
69197;SDS011;56311;50.298;8.514;2023-02-26T12:44:56;4.43;;;1.00;;
69197;SDS011;56311;50.298;8.514;2023-02-26T12:47:29;2.55;;;0.77;;
69197;SDS011;56311;50.298;8.514;2023-02-26T12:50:05;3.50;;;1.00;;
69197;SDS011;56311;50.298;8.514;2023-02-26T12:52:48;4.00;;;0.70;;
69197;SDS011;56311;50.298;8.514;2023-02-26T12:55:20;2.60;;;0.70;;
69197;SDS011;56311;50.298;8.514;2023-02-26T12:57:53;3.55;;;1.05;;
69197;SDS011;56311;50.298;8.514;2023-02-26T13:00:32;2.55;;;1.00;;
69197;SDS011;56311;50.298;8.514;2023-02-26T13:03:24;3.35;;;1.00;;
69197;SDS011;56311;50.298;8.514;2023-02-26T13:05:58;2.67;;;0.80;;
69197;SDS011;56311;50.298;8.514;2023-02-26T13:08:29;2.15;;;0.57;;
69197;SDS011;56311;50.298;8.514;2023-02-26T13:11:02;1.48;;;0.60;;
69197;SDS011;56311;50.298;8.514;2023-02-26T13:13:47;2.75;;;0.70;;
69197;SDS011;56311;50.298;8.514;2023-02-26T13:16:18;2.80;;;0.80;;
69197;SDS011;56311;50.298;8.514;2023-02-26T13:18:48;4.25;;;0.80;;
69197;SDS011;56311;50.298;8.514;2023-02-26T13:21:17;4.18;;;0.80;;
69197;SDS011;56311;50.298;8.514;2023-02-26T13:23:48;2.45;;;0.80;;
69197;SDS011;56311;50.298;8.514;2023-02-26T13:26:15;2.83;;;0.70;;
69197;SDS011;56311;50.298;8.514;2023-02-26T13:28:43;5.80;;;0.80;;
69197;SDS011;56311;50.298;8.514;2023-02-26T13:31:11;3.97;;;0.80;;
69197;SDS011;56311;50.298;8.514;2023-02-26T13:33:38;2.35;;;0.70;;
69197;SDS011;56311;50.298;8.514;2023-02-26T13:36:06;3.40;;;0.80;;
69197;SDS011;56311;50.298;8.514;2023-02-26T13:38:34;2.55;;;0.73;;
69197;SDS011;56311;50.298;8.514;2023-02-26T13:41:06;2.95;;;0.80;;
69197;SDS011;56311;50.298;8.514;2023-02-26T13:43:50;2.35;;;0.65;;
69197;SDS011;56311;50.298;8.514;2023-02-26T13:46:24;2.42;;;0.55;;
69197;SDS011;56311;50.298;8.514;2023-02-26T13:48:55;3.35;;;0.60;;
69197;SDS011;56311;50.298;8.514;2023-02-26T13:51:26;2.45;;;0.50;;
69197;SDS011;56311;50.298;8.514;2023-02-26T13:53:57;2.47;;;0.70;;
69197;SDS011;56311;50.298;8.514;2023-02-26T13:59:28;1.88;;;0.60;;
69197;SDS011;56311;50.298;8.514;2023-02-26T14:01:56;3.50;;;0.80;;
69197;SDS011;56311;50.298;8.514;2023-02-26T14:04:23;2.40;;;0.93;;
69197;SDS011;56311;50.298;8.514;2023-02-26T14:06:51;3.08;;;0.88;;
69197;SDS011;56311;50.298;8.514;2023-02-26T14:14:32;3.00;;;0.60;;
69197;SDS011;56311;50.298;8.514;2023-02-26T14:17:25;2.65;;;0.65;;
69197;SDS011;56311;50.298;8.514;2023-02-26T14:20:11;2.20;;;0.60;;
69197;SDS011;56311;50.298;8.514;2023-02-26T14:22:40;2.08;;;0.55;;
69197;SDS011;56311;50.298;8.514;2023-02-26T14:25:11;1.80;;;0.60;;
69197;SDS011;56311;50.298;8.514;2023-02-26T14:27:41;3.03;;;0.55;;
69197;SDS011;56311;50.298;8.514;2023-02-26T14:30:16;2.15;;;0.50;;
69197;SDS011;56311;50.298;8.514;2023-02-26T14:32:45;3.53;;;0.70;;
69197;SDS011;56311;50.298;8.514;2023-02-26T14:35:14;2.80;;;0.80;;
69197;SDS011;56311;50.298;8.514;2023-02-26T14:37:41;7.55;;;3.20;;
69197;SDS011;56311;50.298;8.514;2023-02-26T14:40:10;5.78;;;0.90;;
69197;SDS011;56311;50.298;8.514;2023-02-26T14:42:40;3.45;;;1.15;;
69197;SDS011;56311;50.298;8.514;2023-02-26T14:45:16;5.07;;;0.85;;
69197;SDS011;56311;50.298;8.514;2023-02-26T14:47:45;2.28;;;0.70;;
69197;SDS011;56311;50.298;8.514;2023-02-26T14:50:13;2.83;;;0.85;;
69197;SDS011;56311;50.298;8.514;2023-02-26T14:52:51;7.40;;;3.13;;
69197;SDS011;56311;50.298;8.514;2023-02-26T14:58:08;2.42;;;0.90;;
69197;SDS011;56311;50.298;8.514;2023-02-26T15:00:39;1.75;;;0.57;;
69197;SDS011;56311;50.298;8.514;2023-02-26T15:03:21;2.22;;;0.73;;
69197;SDS011;56311;50.298;8.514;2023-02-26T15:05:53;2.10;;;0.70;;
69197;SDS011;56311;50.298;8.514;2023-02-26T15:08:27;2.55;;;0.60;;
69197;SDS011;56311;50.298;8.514;2023-02-26T15:11:02;2.08;;;0.57;;
69197;SDS011;56311;50.298;8.514;2023-02-26T15:15:59;2.00;;;0.63;;
69197;SDS011;56311;50.298;8.514;2023-02-26T15:18:44;15.25;;;5.32;;
69197;SDS011;56311;50.298;8.514;2023-02-26T15:21:15;19.00;;;6.43;;
69197;SDS011;56311;50.298;8.514;2023-02-26T15:23:43;3.47;;;1.00;;
69197;SDS011;56311;50.298;8.514;2023-02-26T15:26:13;12.05;;;3.75;;